AUA21G EDDF-LOWW
Flight info
| Callsign | AUA21G |
|---|---|
| Flight time | N/A |
| Altitude | 31000 |
| Route | SULUS4L SULUS Z650 VEMUT/N0446F350 DCT ETVIS DCT BUDWA DCT BUDEX BUDEX2W |
| Aircraft | B772/H-SDE2E3FGHIJ5LORVWXY/LB1D1 |
Departure
| Time | 2026-05-06 18:39 |
|---|---|
| Airport | Frankfurt Main Airport (EDDF) |
Arrival
| Time | N/A |
|---|---|
| Airport | Vienna International Airport (LOWW) |
| Time | Latitude | Longitude | Altitude | Speed | Heading |
|---|---|---|---|---|---|
| 2026-05-06 18:00 | 50.04639 | 8.56656 | 367 ft | 0 kts | 115° |
| 2026-05-06 18:26 | 50.04643 | 8.56643 | 360 ft | 4 kts | 114° |
| 2026-05-06 18:26 | 50.04654 | 8.56604 | 342 ft | 4 kts | 114° |
| 2026-05-06 18:27 | 50.04665 | 8.56566 | 367 ft | 4 kts | 115° |
| 2026-05-06 18:27 | 50.04674 | 8.56538 | 369 ft | 2 kts | 142° |
| 2026-05-06 18:27 | 50.04686 | 8.56535 | 368 ft | 3 kts | 208° |
| 2026-05-06 18:27 | 50.04675 | 8.56527 | 367 ft | 4 kts | 205° |
| 2026-05-06 18:28 | 50.04651 | 8.56511 | 365 ft | 4 kts | 204° |
| 2026-05-06 18:28 | 50.04628 | 8.56494 | 368 ft | 3 kts | 204° |
| 2026-05-06 18:28 | 50.04612 | 8.56483 | 366 ft | 2 kts | 204° |
| 2026-05-06 18:28 | 50.04602 | 8.56476 | 369 ft | 1 kts | 204° |
| 2026-05-06 18:29 | 50.04593 | 8.56470 | 369 ft | 1 kts | 204° |
| 2026-05-06 18:29 | 50.04590 | 8.56468 | 369 ft | 0 kts | 204° |
| 2026-05-06 18:31 | 50.04555 | 8.56443 | 365 ft | 13 kts | 205° |
| 2026-05-06 18:31 | 50.04505 | 8.56333 | 367 ft | 13 kts | 248° |
| 2026-05-06 18:31 | 50.04473 | 8.56204 | 364 ft | 13 kts | 249° |
| 2026-05-06 18:31 | 50.04442 | 8.56075 | 369 ft | 13 kts | 245° |
| 2026-05-06 18:32 | 50.04416 | 8.56035 | 365 ft | 0 kts | 216° |
| 2026-05-06 18:32 | 50.04395 | 8.56032 | 364 ft | 8 kts | 176° |
| 2026-05-06 18:32 | 50.04305 | 8.56068 | 364 ft | 15 kts | 179° |
| 2026-05-06 18:32 | 50.04242 | 8.55949 | 365 ft | 15 kts | 248° |
| 2026-05-06 18:33 | 50.04204 | 8.55795 | 362 ft | 15 kts | 250° |
| 2026-05-06 18:33 | 50.04167 | 8.55639 | 364 ft | 15 kts | 250° |
| 2026-05-06 18:33 | 50.04131 | 8.55486 | 358 ft | 15 kts | 250° |
| 2026-05-06 18:33 | 50.04094 | 8.55331 | 366 ft | 15 kts | 250° |
| 2026-05-06 18:34 | 50.04057 | 8.55176 | 363 ft | 15 kts | 249° |
| 2026-05-06 18:34 | 50.04019 | 8.55019 | 364 ft | 15 kts | 249° |
| 2026-05-06 18:34 | 50.03982 | 8.54867 | 358 ft | 15 kts | 250° |
| 2026-05-06 18:34 | 50.03945 | 8.54711 | 361 ft | 15 kts | 250° |
| 2026-05-06 18:35 | 50.03908 | 8.54554 | 362 ft | 15 kts | 249° |
| 2026-05-06 18:35 | 50.03871 | 8.54401 | 357 ft | 15 kts | 249° |
| 2026-05-06 18:35 | 50.03814 | 8.54262 | 358 ft | 15 kts | 236° |
| 2026-05-06 18:35 | 50.03773 | 8.54111 | 357 ft | 15 kts | 250° |
| 2026-05-06 18:36 | 50.03734 | 8.53942 | 355 ft | 19 kts | 249° |
| 2026-05-06 18:36 | 50.03685 | 8.53742 | 357 ft | 20 kts | 250° |
| 2026-05-06 18:36 | 50.03636 | 8.53540 | 351 ft | 20 kts | 249° |
| 2026-05-06 18:36 | 50.03585 | 8.53339 | 353 ft | 20 kts | 249° |
| 2026-05-06 18:37 | 50.03537 | 8.53137 | 349 ft | 20 kts | 249° |
| 2026-05-06 18:37 | 50.03504 | 8.53001 | 351 ft | 20 kts | 250° |
| 2026-05-06 18:37 | 50.03448 | 8.52787 | 335 ft | 0 kts | 247° |
| 2026-05-06 18:38 | 50.03444 | 8.52771 | 336 ft | 3 kts | 247° |
| 2026-05-06 18:38 | 50.03435 | 8.52738 | 338 ft | 3 kts | 248° |
| 2026-05-06 18:38 | 50.03423 | 8.52694 | 337 ft | 10 kts | 248° |
| 2026-05-06 18:38 | 50.03325 | 8.52597 | 340 ft | 29 kts | 182° |
| 2026-05-06 18:39 | 50.02860 | 8.52599 | 337 ft | 111 kts | 180° |
| 2026-05-06 18:39 | 50.01805 | 8.52613 | 381 ft | 185 kts | 182° |
| 2026-05-06 18:39 | 50.00484 | 8.52599 | 1322 ft | 191 kts | 182° |
| 2026-05-06 18:40 | 49.97827 | 8.52628 | 3600 ft | 199 kts | 181° |
| 2026-05-06 18:40 | 49.96407 | 8.53198 | 3937 ft | 236 kts | 150° |
| 2026-05-06 18:40 | 49.95346 | 8.55218 | 4319 ft | 242 kts | 118° |
| 2026-05-06 18:40 | 49.94569 | 8.57608 | 5220 ft | 256 kts | 120° |
| 2026-05-06 18:41 | 49.93897 | 8.60282 | 5793 ft | 274 kts | 105° |
| 2026-05-06 18:41 | 49.93239 | 8.63102 | 6531 ft | 283 kts | 120° |
| 2026-05-06 18:41 | 49.92257 | 8.65760 | 7592 ft | 285 kts | 123° |
| 2026-05-06 18:41 | 49.91215 | 8.68396 | 8697 ft | 288 kts | 123° |
| 2026-05-06 18:42 | 49.90167 | 8.71078 | 9699 ft | 296 kts | 123° |
| 2026-05-06 18:42 | 49.89118 | 8.73818 | 9535 ft | 300 kts | 122° |
| 2026-05-06 18:42 | 49.88093 | 8.76587 | 9636 ft | 292 kts | 121° |
| 2026-05-06 18:42 | 49.87099 | 8.79328 | 9885 ft | 293 kts | 121° |
| 2026-05-06 18:43 | 49.86096 | 8.82094 | 10134 ft | 297 kts | 121° |
| 2026-05-06 18:43 | 49.85081 | 8.84890 | 10381 ft | 299 kts | 121° |
| 2026-05-06 18:43 | 49.84059 | 8.87700 | 10626 ft | 299 kts | 121° |
| 2026-05-06 18:43 | 49.83034 | 8.90514 | 10742 ft | 301 kts | 121° |
| 2026-05-06 18:44 | 49.82004 | 8.93337 | 10777 ft | 300 kts | 121° |
| 2026-05-06 18:44 | 49.80982 | 8.96135 | 10806 ft | 299 kts | 121° |
| 2026-05-06 18:44 | 49.79956 | 8.98942 | 10803 ft | 299 kts | 121° |
| 2026-05-06 18:44 | 49.78932 | 9.01739 | 10816 ft | 298 kts | 121° |
| 2026-05-06 18:45 | 49.77910 | 9.04526 | 10806 ft | 298 kts | 121° |
| 2026-05-06 18:45 | 49.76887 | 9.07309 | 10829 ft | 297 kts | 121° |
| 2026-05-06 18:45 | 49.75970 | 9.10150 | 10814 ft | 296 kts | 110° |
| 2026-05-06 18:45 | 49.75600 | 9.12184 | 10826 ft | 297 kts | 104° |
| 2026-05-06 18:46 | 49.75068 | 9.16408 | 10834 ft | 303 kts | 102° |
| 2026-05-06 18:46 | 49.74693 | 9.19613 | 11137 ft | 329 kts | 101° |
| 2026-05-06 18:46 | 49.74278 | 9.23151 | 12003 ft | 339 kts | 102° |
| 2026-05-06 18:46 | 49.73838 | 9.26765 | 13041 ft | 344 kts | 102° |
| 2026-05-06 18:47 | 49.73378 | 9.30413 | 14077 ft | 348 kts | 102° |
| 2026-05-06 18:47 | 49.72898 | 9.34111 | 15038 ft | 352 kts | 103° |
| 2026-05-06 18:47 | 49.72405 | 9.37837 | 16038 ft | 356 kts | 103° |
| 2026-05-06 18:47 | 49.71899 | 9.41614 | 16986 ft | 362 kts | 103° |
| 2026-05-06 18:48 | 49.71383 | 9.45447 | 17911 ft | 367 kts | 103° |
| 2026-05-06 18:48 | 49.70858 | 9.49333 | 18746 ft | 372 kts | 103° |
| 2026-05-06 18:48 | 49.70326 | 9.53262 | 19545 ft | 376 kts | 104° |
| 2026-05-06 18:48 | 49.69788 | 9.57231 | 20343 ft | 380 kts | 104° |
| 2026-05-06 18:49 | 49.69242 | 9.61246 | 21137 ft | 384 kts | 104° |
| 2026-05-06 18:49 | 49.68688 | 9.65298 | 21920 ft | 388 kts | 104° |
| 2026-05-06 18:49 | 49.68127 | 9.69398 | 22700 ft | 392 kts | 104° |
| 2026-05-06 18:49 | 49.67754 | 9.72131 | 23213 ft | 394 kts | 104° |
| 2026-05-06 18:50 | 49.67187 | 9.76296 | 23896 ft | 398 kts | 105° |
| 2026-05-06 18:50 | 49.66430 | 9.81852 | 24835 ft | 401 kts | 105° |
| 2026-05-06 18:50 | 49.65853 | 9.86075 | 25503 ft | 404 kts | 105° |
| 2026-05-06 18:50 | 49.65267 | 9.90335 | 26152 ft | 407 kts | 105° |
| 2026-05-06 18:51 | 49.64867 | 9.93230 | 26579 ft | 410 kts | 106° |
| 2026-05-06 18:51 | 49.64269 | 9.97550 | 27250 ft | 413 kts | 106° |
| 2026-05-06 18:51 | 49.63664 | 10.01906 | 27906 ft | 417 kts | 106° |
| 2026-05-06 18:51 | 49.63192 | 10.06342 | 28574 ft | 423 kts | 99° |
| 2026-05-06 18:52 | 49.63083 | 10.10912 | 29244 ft | 430 kts | 94° |
| 2026-05-06 18:52 | 49.63291 | 10.15559 | 29700 ft | 441 kts | 88° |
| 2026-05-06 18:52 | 49.63685 | 10.20275 | 29963 ft | 444 kts | 87° |
| 2026-05-06 18:52 | 49.64114 | 10.24999 | 30197 ft | 445 kts | 86° |
| 2026-05-06 18:53 | 49.64551 | 10.29748 | 30527 ft | 450 kts | 87° |
| 2026-05-06 18:53 | 49.64986 | 10.34554 | 30991 ft | 455 kts | 87° |
| 2026-05-06 18:53 | 49.65410 | 10.39347 | 31460 ft | 458 kts | 87° |
| 2026-05-06 18:53 | 49.65810 | 10.44231 | 32027 ft | 459 kts | 88° |
| 2026-05-06 18:54 | 49.66165 | 10.49134 | 32633 ft | 460 kts | 89° |
| 2026-05-06 18:54 | 49.66519 | 10.54044 | 33251 ft | 461 kts | 88° |
| 2026-05-06 18:54 | 49.66889 | 10.58977 | 33768 ft | 465 kts | 88° |
| 2026-05-06 18:54 | 49.67278 | 10.63967 | 34017 ft | 472 kts | 88° |
| 2026-05-06 18:55 | 49.67687 | 10.69024 | 34265 ft | 476 kts | 87° |
| 2026-05-06 18:55 | 49.68106 | 10.74101 | 34483 ft | 477 kts | 87° |
| 2026-05-06 18:55 | 49.68529 | 10.79175 | 34689 ft | 477 kts | 87° |
| 2026-05-06 18:56 | 49.69374 | 10.89368 | 34776 ft | 474 kts | 87° |
| 2026-05-06 18:56 | 49.70192 | 10.99345 | 34789 ft | 465 kts | 87° |
| 2026-05-06 18:57 | 49.70987 | 11.09276 | 34801 ft | 467 kts | 88° |
| 2026-05-06 18:57 | 49.71775 | 11.19248 | 34808 ft | 469 kts | 88° |
| 2026-05-06 18:58 | 49.72559 | 11.29260 | 34797 ft | 470 kts | 88° |
| 2026-05-06 18:58 | 49.73338 | 11.39288 | 34801 ft | 470 kts | 88° |
| 2026-05-06 18:59 | 49.74108 | 11.49325 | 34795 ft | 470 kts | 88° |
| 2026-05-06 18:59 | 49.74869 | 11.59380 | 34792 ft | 471 kts | 88° |
| 2026-05-06 19:00 | 49.75624 | 11.69451 | 34782 ft | 472 kts | 88° |
| 2026-05-06 19:00 | 49.76370 | 11.79527 | 34774 ft | 472 kts | 88° |
| 2026-05-06 19:01 | 49.77108 | 11.89612 | 34774 ft | 472 kts | 88° |
| 2026-05-06 19:01 | 49.77836 | 11.99694 | 34778 ft | 472 kts | 89° |
| 2026-05-06 19:02 | 49.78555 | 12.09784 | 34784 ft | 472 kts | 89° |
| 2026-05-06 19:02 | 49.79267 | 12.19879 | 34780 ft | 472 kts | 89° |
| 2026-05-06 19:03 | 49.79970 | 12.29975 | 34784 ft | 472 kts | 89° |
| 2026-05-06 19:03 | 49.80606 | 12.40063 | 34773 ft | 467 kts | 95° |
| 2026-05-06 19:03 | 49.80298 | 12.44933 | 34784 ft | 457 kts | 109° |